Niceville, FL (32578)

10:33 AM CST on December 04, 2016 (GMT -0600)
BayView Cam/Weather courtesy Clara Miles, REALTOR | | Change Station

Elev 27 ft 30.49 °N, 86.46 °W | Updated 3 minutes ago

Overcast
Overcast
68.3 °F
Feels Like 68.3 °F
N
15.0
Wind Variable Wind from SSE
Gusts 19.0 mph

Today
High -- | Low -- °F
--% Chance of Precip.
Yesterday
High -- | Low -- °F
Precip. -- in
Pressure 30.01 in
Visibility 10.0 miles
Clouds Overcast 800 ft
Dew Point 64 °F
Humidity 85%
Rainfall 0.00 in
Snow Depth Not available.
6:27 AM 4:44 PM
Waxing Crescent, 23% visible
METAR KVPS 041555Z 14010KT 10SM OVC008 20/18 A2999 RMK AO2A SLP162 P0000 T02000179 $
Pressure 30.01 in
Visibility 10.0 miles
Clouds Overcast 800 ft
Dew Point 64 °F
Humidity 85%
Rainfall 0.00 in
Snow Depth Not available.
6:27 AM 4:44 PM
Waxing Crescent, 23% visible
METAR KVPS 041555Z 14010KT 10SM OVC008 20/18 A2999 RMK AO2A SLP162 P0000 T02000179 $

10-Day Weather Forecast

Almanac

Astronomy

Dec. 04, 2016 Rise Set
Actual Time
Civil Twilight
Nautical Twilight
Astronomical Twilight
Moon
Length of Visible Light
Length of Day
Tomorrow will be .
, % of the Moon is Illuminated

Today's Extremes

State Highs State Lows

Community

WunderPhotos

Upload Photos

1,955,622 photos uploaded!

WunderBlog® & News

Nearby

Air Quality

  Air Quality AQ Index Pollutant
Not available.

Snow Depth

Station Depth Elevation

Earthquake Activity

City Distance Mag. Time & Date
Minimum magnitude displayed is 2.5.

Coastal Water Temperatures

Place Temperature

Stations

Nearby Weather Stations

Station Location Temp. Windchill Dew Point Humidity Wind Precip. Elev Updated Type
                   

Watches & Warnings

There are currently no watches in effect.